sensor_id;sensor_type;location;lat;lon;timestamp;P1;durP1;ratioP1;P2;durP2;ratioP2
66597;SDS011;57424;53.128;6.406;2023-05-10T00:01:11;2.58;;;1.40;;
66597;SDS011;57424;53.128;6.406;2023-05-10T00:03:36;2.30;;;1.50;;
66597;SDS011;57424;53.128;6.406;2023-05-10T00:06:02;2.03;;;1.35;;
66597;SDS011;57424;53.128;6.406;2023-05-10T00:08:28;3.22;;;1.48;;
66597;SDS011;57424;53.128;6.406;2023-05-10T00:10:53;2.25;;;1.50;;
66597;SDS011;57424;53.128;6.406;2023-05-10T00:13:19;1.40;;;1.30;;
66597;SDS011;57424;53.128;6.406;2023-05-10T00:15:44;1.40;;;1.30;;
66597;SDS011;57424;53.128;6.406;2023-05-10T00:18:10;1.75;;;1.27;;
66597;SDS011;57424;53.128;6.406;2023-05-10T00:20:36;1.65;;;1.25;;
66597;SDS011;57424;53.128;6.406;2023-05-10T00:23:01;1.92;;;1.40;;
66597;SDS011;57424;53.128;6.406;2023-05-10T00:25:27;1.35;;;1.17;;
66597;SDS011;57424;53.128;6.406;2023-05-10T00:27:52;1.58;;;1.33;;
66597;SDS011;57424;53.128;6.406;2023-05-10T00:30:20;1.30;;;1.20;;
66597;SDS011;57424;53.128;6.406;2023-05-10T00:32:45;1.63;;;1.27;;
66597;SDS011;57424;53.128;6.406;2023-05-10T00:35:13;1.25;;;1.13;;
66597;SDS011;57424;53.128;6.406;2023-05-10T00:37:38;1.30;;;1.20;;
66597;SDS011;57424;53.128;6.406;2023-05-10T00:40:04;1.40;;;1.30;;
66597;SDS011;57424;53.128;6.406;2023-05-10T00:42:30;1.15;;;1.05;;
66597;SDS011;57424;53.128;6.406;2023-05-10T00:44:56;1.25;;;1.10;;
66597;SDS011;57424;53.128;6.406;2023-05-10T00:47:22;1.40;;;1.30;;
66597;SDS011;57424;53.128;6.406;2023-05-10T00:49:48;1.33;;;1.20;;
66597;SDS011;57424;53.128;6.406;2023-05-10T00:52:14;1.55;;;1.27;;
66597;SDS011;57424;53.128;6.406;2023-05-10T00:54:40;1.30;;;1.20;;
66597;SDS011;57424;53.128;6.406;2023-05-10T00:57:06;1.00;;;0.90;;
66597;SDS011;57424;53.128;6.406;2023-05-10T00:59:31;1.50;;;1.13;;
66597;SDS011;57424;53.128;6.406;2023-05-10T01:01:57;1.50;;;1.10;;
66597;SDS011;57424;53.128;6.406;2023-05-10T01:04:23;1.30;;;0.80;;
66597;SDS011;57424;53.128;6.406;2023-05-10T01:06:51;1.88;;;1.10;;
66597;SDS011;57424;53.128;6.406;2023-05-10T01:09:17;1.20;;;1.10;;
66597;SDS011;57424;53.128;6.406;2023-05-10T01:11:43;1.20;;;1.08;;
66597;SDS011;57424;53.128;6.406;2023-05-10T01:14:09;1.90;;;1.13;;
66597;SDS011;57424;53.128;6.406;2023-05-10T01:16:36;0.95;;;0.95;;
66597;SDS011;57424;53.128;6.406;2023-05-10T01:21:53;1.42;;;0.98;;
66597;SDS011;57424;53.128;6.406;2023-05-10T01:32:31;1.13;;;1.02;;
66597;SDS011;57424;53.128;6.406;2023-05-10T01:42:55;0.90;;;0.90;;
66597;SDS011;57424;53.128;6.406;2023-05-10T01:45:31;1.35;;;1.05;;
66597;SDS011;57424;53.128;6.406;2023-05-10T01:48:04;0.90;;;0.90;;
66597;SDS011;57424;53.128;6.406;2023-05-10T01:50:35;1.80;;;1.00;;
66597;SDS011;57424;53.128;6.406;2023-05-10T01:53:04;1.00;;;0.90;;
66597;SDS011;57424;53.128;6.406;2023-05-10T01:55:33;0.95;;;0.85;;
66597;SDS011;57424;53.128;6.406;2023-05-10T01:58:07;1.48;;;0.90;;
66597;SDS011;57424;53.128;6.406;2023-05-10T02:00:35;1.10;;;0.95;;
66597;SDS011;57424;53.128;6.406;2023-05-10T02:03:05;1.00;;;1.00;;
66597;SDS011;57424;53.128;6.406;2023-05-10T02:05:33;1.52;;;1.08;;
66597;SDS011;57424;53.128;6.406;2023-05-10T02:08:01;1.00;;;0.85;;
66597;SDS011;57424;53.128;6.406;2023-05-10T02:10:30;1.73;;;1.20;;
66597;SDS011;57424;53.128;6.406;2023-05-10T02:12:58;0.85;;;0.85;;
66597;SDS011;57424;53.128;6.406;2023-05-10T02:15:25;1.35;;;1.10;;
66597;SDS011;57424;53.128;6.406;2023-05-10T02:17:52;1.65;;;1.20;;
66597;SDS011;57424;53.128;6.406;2023-05-10T02:20:20;0.68;;;0.68;;
66597;SDS011;57424;53.128;6.406;2023-05-10T02:22:48;0.82;;;0.82;;
66597;SDS011;57424;53.128;6.406;2023-05-10T02:25:15;0.85;;;0.82;;
66597;SDS011;57424;53.128;6.406;2023-05-10T02:27:44;1.05;;;1.00;;
66597;SDS011;57424;53.128;6.406;2023-05-10T02:30:11;1.10;;;0.80;;
66597;SDS011;57424;53.128;6.406;2023-05-10T02:32:37;0.93;;;0.90;;
66597;SDS011;57424;53.128;6.406;2023-05-10T02:35:04;0.68;;;0.68;;
66597;SDS011;57424;53.128;6.406;2023-05-10T02:37:31;0.80;;;0.80;;
66597;SDS011;57424;53.128;6.406;2023-05-10T02:39:58;1.80;;;0.97;;
66597;SDS011;57424;53.128;6.406;2023-05-10T02:42:27;1.08;;;0.80;;
66597;SDS011;57424;53.128;6.406;2023-05-10T02:45:01;1.00;;;0.95;;
66597;SDS011;57424;53.128;6.406;2023-05-10T02:47:30;0.90;;;0.90;;
66597;SDS011;57424;53.128;6.406;2023-05-10T02:49:56;1.10;;;1.00;;
66597;SDS011;57424;53.128;6.406;2023-05-10T02:52:23;1.77;;;1.00;;
66597;SDS011;57424;53.128;6.406;2023-05-10T02:54:56;1.42;;;1.17;;
66597;SDS011;57424;53.128;6.406;2023-05-10T02:57:26;1.30;;;1.05;;
66597;SDS011;57424;53.128;6.406;2023-05-10T02:59:54;1.15;;;1.00;;
66597;SDS011;57424;53.128;6.406;2023-05-10T03:02:20;1.83;;;1.13;;
66597;SDS011;57424;53.128;6.406;2023-05-10T03:04:46;1.23;;;1.10;;
66597;SDS011;57424;53.128;6.406;2023-05-10T03:07:11;0.80;;;0.80;;
66597;SDS011;57424;53.128;6.406;2023-05-10T03:09:37;1.33;;;1.00;;
66597;SDS011;57424;53.128;6.406;2023-05-10T03:15:00;1.88;;;1.20;;
66597;SDS011;57424;53.128;6.406;2023-05-10T03:17:35;1.90;;;1.17;;
66597;SDS011;57424;53.128;6.406;2023-05-10T03:20:10;1.85;;;1.10;;
66597;SDS011;57424;53.128;6.406;2023-05-10T03:22:47;1.13;;;1.02;;
66597;SDS011;57424;53.128;6.406;2023-05-10T03:25:15;1.40;;;1.13;;
66597;SDS011;57424;53.128;6.406;2023-05-10T03:27:44;1.48;;;1.20;;
66597;SDS011;57424;53.128;6.406;2023-05-10T03:30:11;2.25;;;1.35;;
66597;SDS011;57424;53.128;6.406;2023-05-10T03:32:37;1.55;;;1.25;;
66597;SDS011;57424;53.128;6.406;2023-05-10T03:35:10;2.78;;;1.20;;
66597;SDS011;57424;53.128;6.406;2023-05-10T03:37:37;1.63;;;1.15;;
66597;SDS011;57424;53.128;6.406;2023-05-10T03:40:03;2.30;;;1.30;;
66597;SDS011;57424;53.128;6.406;2023-05-10T03:42:29;1.65;;;1.20;;
66597;SDS011;57424;53.128;6.406;2023-05-10T03:44:55;1.95;;;1.20;;
66597;SDS011;57424;53.128;6.406;2023-05-10T03:47:20;1.55;;;1.17;;
66597;SDS011;57424;53.128;6.406;2023-05-10T03:49:46;1.27;;;1.17;;
66597;SDS011;57424;53.128;6.406;2023-05-10T03:52:11;1.35;;;1.20;;
66597;SDS011;57424;53.128;6.406;2023-05-10T03:54:37;1.35;;;1.05;;
66597;SDS011;57424;53.128;6.406;2023-05-10T03:57:03;1.77;;;1.20;;
66597;SDS011;57424;53.128;6.406;2023-05-10T03:59:29;1.42;;;1.13;;
66597;SDS011;57424;53.128;6.406;2023-05-10T04:01:54;2.53;;;1.40;;
66597;SDS011;57424;53.128;6.406;2023-05-10T04:04:20;2.67;;;1.30;;
66597;SDS011;57424;53.128;6.406;2023-05-10T04:06:46;2.78;;;1.52;;
66597;SDS011;57424;53.128;6.406;2023-05-10T04:09:12;1.52;;;1.10;;
66597;SDS011;57424;53.128;6.406;2023-05-10T04:11:37;1.73;;;1.27;;
66597;SDS011;57424;53.128;6.406;2023-05-10T04:14:03;1.95;;;1.40;;
66597;SDS011;57424;53.128;6.406;2023-05-10T04:16:29;1.50;;;1.10;;
66597;SDS011;57424;53.128;6.406;2023-05-10T04:18:54;2.15;;;1.30;;
66597;SDS011;57424;53.128;6.406;2023-05-10T04:21:20;1.38;;;1.00;;
66597;SDS011;57424;53.128;6.406;2023-05-10T04:23:45;1.48;;;1.00;;
66597;SDS011;57424;53.128;6.406;2023-05-10T04:26:11;1.23;;;1.00;;
66597;SDS011;57424;53.128;6.406;2023-05-10T04:28:37;1.55;;;1.10;;
66597;SDS011;57424;53.128;6.406;2023-05-10T04:31:03;1.48;;;1.05;;
66597;SDS011;57424;53.128;6.406;2023-05-10T04:33:30;1.02;;;0.93;;
66597;SDS011;57424;53.128;6.406;2023-05-10T04:35:55;1.58;;;0.90;;
66597;SDS011;57424;53.128;6.406;2023-05-10T04:38:21;1.25;;;0.95;;
66597;SDS011;57424;53.128;6.406;2023-05-10T04:40:46;1.58;;;1.10;;
66597;SDS011;57424;53.128;6.406;2023-05-10T04:43:12;0.82;;;0.82;;
66597;SDS011;57424;53.128;6.406;2023-05-10T04:45:38;1.27;;;1.00;;
66597;SDS011;57424;53.128;6.406;2023-05-10T04:48:03;1.20;;;1.05;;
66597;SDS011;57424;53.128;6.406;2023-05-10T04:50:29;0.95;;;0.90;;
66597;SDS011;57424;53.128;6.406;2023-05-10T04:52:55;0.80;;;0.70;;
66597;SDS011;57424;53.128;6.406;2023-05-10T04:55:20;1.05;;;0.80;;
66597;SDS011;57424;53.128;6.406;2023-05-10T04:57:46;0.88;;;0.60;;
66597;SDS011;57424;53.128;6.406;2023-05-10T05:00:12;0.98;;;0.70;;
66597;SDS011;57424;53.128;6.406;2023-05-10T05:02:38;1.48;;;0.80;;
66597;SDS011;57424;53.128;6.406;2023-05-10T05:05:03;1.45;;;0.90;;
66597;SDS011;57424;53.128;6.406;2023-05-10T05:07:29;1.08;;;0.73;;
66597;SDS011;57424;53.128;6.406;2023-05-10T05:09:55;0.70;;;0.60;;
66597;SDS011;57424;53.128;6.406;2023-05-10T05:12:21;0.75;;;0.70;;
66597;SDS011;57424;53.128;6.406;2023-05-10T05:14:46;0.50;;;0.50;;
66597;SDS011;57424;53.128;6.406;2023-05-10T05:17:12;0.60;;;0.60;;
66597;SDS011;57424;53.128;6.406;2023-05-10T05:19:38;0.60;;;0.60;;
66597;SDS011;57424;53.128;6.406;2023-05-10T05:22:06;1.40;;;0.88;;
66597;SDS011;57424;53.128;6.406;2023-05-10T05:24:35;0.93;;;0.65;;
66597;SDS011;57424;53.128;6.406;2023-05-10T05:27:04;1.63;;;0.75;;
66597;SDS011;57424;53.128;6.406;2023-05-10T05:29:30;1.40;;;0.65;;
66597;SDS011;57424;53.128;6.406;2023-05-10T05:31:56;0.70;;;0.70;;
66597;SDS011;57424;53.128;6.406;2023-05-10T05:34:22;1.15;;;0.60;;
66597;SDS011;57424;53.128;6.406;2023-05-10T05:36:48;0.63;;;0.60;;
66597;SDS011;57424;53.128;6.406;2023-05-10T05:39:13;0.65;;;0.65;;
66597;SDS011;57424;53.128;6.406;2023-05-10T05:41:39;1.05;;;0.80;;
66597;SDS011;57424;53.128;6.406;2023-05-10T05:44:05;0.65;;;0.65;;
66597;SDS011;57424;53.128;6.406;2023-05-10T05:46:30;0.50;;;0.50;;
66597;SDS011;57424;53.128;6.406;2023-05-10T05:48:56;0.50;;;0.50;;
66597;SDS011;57424;53.128;6.406;2023-05-10T05:51:21;0.60;;;0.50;;
66597;SDS011;57424;53.128;6.406;2023-05-10T05:53:47;0.95;;;0.70;;
66597;SDS011;57424;53.128;6.406;2023-05-10T05:56:12;1.48;;;0.60;;
66597;SDS011;57424;53.128;6.406;2023-05-10T05:58:38;0.60;;;0.60;;
66597;SDS011;57424;53.128;6.406;2023-05-10T06:01:04;0.60;;;0.60;;
66597;SDS011;57424;53.128;6.406;2023-05-10T06:03:29;0.50;;;0.50;;
66597;SDS011;57424;53.128;6.406;2023-05-10T06:05:55;0.60;;;0.60;;
66597;SDS011;57424;53.128;6.406;2023-05-10T06:08:21;1.08;;;0.60;;
66597;SDS011;57424;53.128;6.406;2023-05-10T06:10:47;1.17;;;0.80;;
66597;SDS011;57424;53.128;6.406;2023-05-10T06:13:12;0.88;;;0.73;;
66597;SDS011;57424;53.128;6.406;2023-05-10T06:15:38;0.82;;;0.65;;
66597;SDS011;57424;53.128;6.406;2023-05-10T06:18:04;1.52;;;0.85;;
66597;SDS011;57424;53.128;6.406;2023-05-10T06:20:29;0.80;;;0.75;;
66597;SDS011;57424;53.128;6.406;2023-05-10T06:22:56;0.52;;;0.47;;
66597;SDS011;57424;53.128;6.406;2023-05-10T06:25:22;1.27;;;0.70;;
66597;SDS011;57424;53.128;6.406;2023-05-10T06:27:48;4.75;;;0.68;;
66597;SDS011;57424;53.128;6.406;2023-05-10T06:30:15;1.20;;;0.65;;
66597;SDS011;57424;53.128;6.406;2023-05-10T06:32:41;0.67;;;0.67;;
66597;SDS011;57424;53.128;6.406;2023-05-10T06:35:09;0.68;;;0.60;;
66597;SDS011;57424;53.128;6.406;2023-05-10T06:37:34;0.95;;;0.70;;
66597;SDS011;57424;53.128;6.406;2023-05-10T06:40:00;0.60;;;0.60;;
66597;SDS011;57424;53.128;6.406;2023-05-10T06:42:26;1.10;;;0.60;;
66597;SDS011;57424;53.128;6.406;2023-05-10T06:44:52;2.80;;;0.60;;
66597;SDS011;57424;53.128;6.406;2023-05-10T06:47:18;1.95;;;0.65;;
66597;SDS011;57424;53.128;6.406;2023-05-10T06:49:43;2.05;;;0.55;;
66597;SDS011;57424;53.128;6.406;2023-05-10T06:52:09;1.63;;;0.55;;
66597;SDS011;57424;53.128;6.406;2023-05-10T06:54:34;0.80;;;0.50;;
66597;SDS011;57424;53.128;6.406;2023-05-10T06:57:00;1.77;;;0.70;;
66597;SDS011;57424;53.128;6.406;2023-05-10T06:59:27;1.05;;;0.60;;
66597;SDS011;57424;53.128;6.406;2023-05-10T07:01:53;0.95;;;0.60;;
66597;SDS011;57424;53.128;6.406;2023-05-10T07:04:19;1.05;;;0.32;;
66597;SDS011;57424;53.128;6.406;2023-05-10T07:06:44;2.58;;;0.60;;
66597;SDS011;57424;53.128;6.406;2023-05-10T07:09:11;0.40;;;0.40;;
66597;SDS011;57424;53.128;6.406;2023-05-10T07:11:36;0.60;;;0.60;;
66597;SDS011;57424;53.128;6.406;2023-05-10T07:14:02;0.82;;;0.65;;
66597;SDS011;57424;53.128;6.406;2023-05-10T07:16:28;1.58;;;0.55;;
66597;SDS011;57424;53.128;6.406;2023-05-10T07:18:53;2.30;;;0.55;;
66597;SDS011;57424;53.128;6.406;2023-05-10T07:21:19;0.47;;;0.47;;
66597;SDS011;57424;53.128;6.406;2023-05-10T07:23:45;1.65;;;0.57;;
66597;SDS011;57424;53.128;6.406;2023-05-10T07:26:10;1.02;;;0.50;;
66597;SDS011;57424;53.128;6.406;2023-05-10T07:28:36;0.40;;;0.40;;
66597;SDS011;57424;53.128;6.406;2023-05-10T07:31:03;0.52;;;0.47;;
66597;SDS011;57424;53.128;6.406;2023-05-10T07:33:28;0.98;;;0.73;;
66597;SDS011;57424;53.128;6.406;2023-05-10T07:35:54;1.48;;;0.60;;
66597;SDS011;57424;53.128;6.406;2023-05-10T07:38:19;1.80;;;0.60;;
66597;SDS011;57424;53.128;6.406;2023-05-10T07:40:45;0.95;;;0.45;;
66597;SDS011;57424;53.128;6.406;2023-05-10T07:43:10;0.52;;;0.50;;
66597;SDS011;57424;53.128;6.406;2023-05-10T07:45:36;0.65;;;0.50;;
66597;SDS011;57424;53.128;6.406;2023-05-10T07:48:02;0.88;;;0.47;;
66597;SDS011;57424;53.128;6.406;2023-05-10T07:50:27;0.93;;;0.50;;
66597;SDS011;57424;53.128;6.406;2023-05-10T07:52:53;0.50;;;0.50;;
66597;SDS011;57424;53.128;6.406;2023-05-10T07:55:19;0.73;;;0.60;;
66597;SDS011;57424;53.128;6.406;2023-05-10T07:57:46;0.93;;;0.60;;
66597;SDS011;57424;53.128;6.406;2023-05-10T08:00:12;0.50;;;0.50;;
66597;SDS011;57424;53.128;6.406;2023-05-10T08:02:38;0.57;;;0.57;;
66597;SDS011;57424;53.128;6.406;2023-05-10T08:05:04;1.30;;;0.57;;
66597;SDS011;57424;53.128;6.406;2023-05-10T08:07:30;3.22;;;0.70;;
66597;SDS011;57424;53.128;6.406;2023-05-10T08:09:56;5.20;;;0.85;;
66597;SDS011;57424;53.128;6.406;2023-05-10T08:12:21;0.60;;;0.60;;
66597;SDS011;57424;53.128;6.406;2023-05-10T08:14:47;2.35;;;0.70;;
66597;SDS011;57424;53.128;6.406;2023-05-10T08:17:12;4.38;;;0.73;;
66597;SDS011;57424;53.128;6.406;2023-05-10T08:19:38;2.92;;;0.95;;
66597;SDS011;57424;53.128;6.406;2023-05-10T08:22:03;3.05;;;0.82;;
66597;SDS011;57424;53.128;6.406;2023-05-10T08:24:29;0.65;;;0.65;;
66597;SDS011;57424;53.128;6.406;2023-05-10T08:26:55;1.10;;;0.73;;
66597;SDS011;57424;53.128;6.406;2023-05-10T08:29:20;1.75;;;1.00;;
66597;SDS011;57424;53.128;6.406;2023-05-10T08:31:46;0.95;;;0.90;;
66597;SDS011;57424;53.128;6.406;2023-05-10T08:34:11;1.50;;;0.82;;
66597;SDS011;57424;53.128;6.406;2023-05-10T08:36:37;1.02;;;1.00;;
66597;SDS011;57424;53.128;6.406;2023-05-10T08:39:02;2.00;;;1.10;;
66597;SDS011;57424;53.128;6.406;2023-05-10T08:41:28;1.63;;;0.88;;
66597;SDS011;57424;53.128;6.406;2023-05-10T08:46:22;0.95;;;0.70;;
66597;SDS011;57424;53.128;6.406;2023-05-10T08:48:48;1.95;;;1.15;;
66597;SDS011;57424;53.128;6.406;2023-05-10T08:51:18;1.20;;;1.10;;
66597;SDS011;57424;53.128;6.406;2023-05-10T08:53:47;1.20;;;1.00;;
66597;SDS011;57424;53.128;6.406;2023-05-10T08:56:13;1.20;;;0.93;;
66597;SDS011;57424;53.128;6.406;2023-05-10T08:58:40;1.92;;;1.10;;
66597;SDS011;57424;53.128;6.406;2023-05-10T09:01:06;1.20;;;1.10;;
66597;SDS011;57424;53.128;6.406;2023-05-10T09:03:33;1.35;;;0.98;;
66597;SDS011;57424;53.128;6.406;2023-05-10T09:06:00;1.40;;;1.10;;
66597;SDS011;57424;53.128;6.406;2023-05-10T09:08:27;0.70;;;0.70;;
66597;SDS011;57424;53.128;6.406;2023-05-10T09:10:55;1.00;;;0.90;;
66597;SDS011;57424;53.128;6.406;2023-05-10T09:13:22;1.08;;;0.88;;
66597;SDS011;57424;53.128;6.406;2023-05-10T09:15:48;1.33;;;0.98;;
66597;SDS011;57424;53.128;6.406;2023-05-10T09:18:14;6.15;;;1.17;;
66597;SDS011;57424;53.128;6.406;2023-05-10T09:20:40;2.15;;;1.17;;
66597;SDS011;57424;53.128;6.406;2023-05-10T09:23:06;1.73;;;1.00;;
66597;SDS011;57424;53.128;6.406;2023-05-10T09:25:32;2.28;;;1.27;;
66597;SDS011;57424;53.128;6.406;2023-05-10T09:28:00;2.35;;;0.85;;
66597;SDS011;57424;53.128;6.406;2023-05-10T09:30:27;1.63;;;1.30;;
66597;SDS011;57424;53.128;6.406;2023-05-10T09:32:54;1.50;;;1.10;;
66597;SDS011;57424;53.128;6.406;2023-05-10T09:35:22;2.67;;;1.35;;
66597;SDS011;57424;53.128;6.406;2023-05-10T09:37:50;4.10;;;1.38;;
66597;SDS011;57424;53.128;6.406;2023-05-10T09:40:19;4.30;;;1.33;;
66597;SDS011;57424;53.128;6.406;2023-05-10T09:45:18;5.55;;;1.30;;
66597;SDS011;57424;53.128;6.406;2023-05-10T09:47:45;1.65;;;1.10;;
66597;SDS011;57424;53.128;6.406;2023-05-10T09:50:11;4.05;;;1.40;;
66597;SDS011;57424;53.128;6.406;2023-05-10T09:52:46;3.08;;;1.20;;
66597;SDS011;57424;53.128;6.406;2023-05-10T09:55:23;2.22;;;1.52;;
66597;SDS011;57424;53.128;6.406;2023-05-10T09:57:58;1.70;;;1.42;;
66597;SDS011;57424;53.128;6.406;2023-05-10T10:00:24;3.63;;;1.40;;
66597;SDS011;57424;53.128;6.406;2023-05-10T10:02:55;3.03;;;1.70;;
66597;SDS011;57424;53.128;6.406;2023-05-10T10:05:27;3.00;;;1.45;;
66597;SDS011;57424;53.128;6.406;2023-05-10T10:07:53;3.70;;;1.30;;
66597;SDS011;57424;53.128;6.406;2023-05-10T10:10:20;4.10;;;1.50;;
66597;SDS011;57424;53.128;6.406;2023-05-10T10:12:46;5.30;;;1.80;;
66597;SDS011;57424;53.128;6.406;2023-05-10T10:15:11;3.85;;;2.30;;
66597;SDS011;57424;53.128;6.406;2023-05-10T10:17:37;9.38;;;3.20;;
66597;SDS011;57424;53.128;6.406;2023-05-10T10:20:04;6.93;;;3.30;;
66597;SDS011;57424;53.128;6.406;2023-05-10T10:22:30;11.40;;;6.15;;
66597;SDS011;57424;53.128;6.406;2023-05-10T10:24:55;19.85;;;10.90;;
66597;SDS011;57424;53.128;6.406;2023-05-10T10:27:26;24.38;;;14.13;;
66597;SDS011;57424;53.128;6.406;2023-05-10T10:36:00;28.70;;;15.35;;
66597;SDS011;57424;53.128;6.406;2023-05-10T10:38:37;31.75;;;15.43;;
66597;SDS011;57424;53.128;6.406;2023-05-10T10:41:10;25.95;;;14.88;;
66597;SDS011;57424;53.128;6.406;2023-05-10T10:43:46;19.80;;;12.30;;
66597;SDS011;57424;53.128;6.406;2023-05-10T10:46:13;21.60;;;12.63;;
66597;SDS011;57424;53.128;6.406;2023-05-10T10:48:49;21.77;;;14.27;;
66597;SDS011;57424;53.128;6.406;2023-05-10T10:51:18;25.88;;;12.85;;
66597;SDS011;57424;53.128;6.406;2023-05-10T10:53:44;20.02;;;13.00;;
66597;SDS011;57424;53.128;6.406;2023-05-10T10:56:12;21.45;;;12.98;;
66597;SDS011;57424;53.128;6.406;2023-05-10T10:58:38;22.13;;;14.00;;
66597;SDS011;57424;53.128;6.406;2023-05-10T11:01:11;26.17;;;14.05;;
66597;SDS011;57424;53.128;6.406;2023-05-10T11:03:38;24.08;;;13.73;;
66597;SDS011;57424;53.128;6.406;2023-05-10T11:06:03;20.45;;;13.32;;
66597;SDS011;57424;53.128;6.406;2023-05-10T11:08:32;22.73;;;13.65;;
66597;SDS011;57424;53.128;6.406;2023-05-10T11:13:37;25.10;;;13.35;;
66597;SDS011;57424;53.128;6.406;2023-05-10T11:16:09;21.75;;;13.05;;
66597;SDS011;57424;53.128;6.406;2023-05-10T11:19:04;19.98;;;13.48;;
66597;SDS011;57424;53.128;6.406;2023-05-10T11:21:33;23.00;;;14.45;;
66597;SDS011;57424;53.128;6.406;2023-05-10T11:24:12;18.98;;;13.23;;
66597;SDS011;57424;53.128;6.406;2023-05-10T11:26:39;19.48;;;12.80;;
66597;SDS011;57424;53.128;6.406;2023-05-10T11:29:05;22.40;;;13.20;;
66597;SDS011;57424;53.128;6.406;2023-05-10T11:31:31;21.90;;;12.45;;
66597;SDS011;57424;53.128;6.406;2023-05-10T11:33:58;21.98;;;12.70;;
66597;SDS011;57424;53.128;6.406;2023-05-10T11:36:27;16.75;;;12.10;;
66597;SDS011;57424;53.128;6.406;2023-05-10T11:38:54;28.48;;;11.85;;
66597;SDS011;57424;53.128;6.406;2023-05-10T11:41:22;18.63;;;12.38;;
66597;SDS011;57424;53.128;6.406;2023-05-10T11:46:16;16.77;;;11.25;;
66597;SDS011;57424;53.128;6.406;2023-05-10T11:48:45;20.83;;;11.90;;
66597;SDS011;57424;53.128;6.406;2023-05-10T11:51:14;17.90;;;10.32;;
66597;SDS011;57424;53.128;6.406;2023-05-10T11:53:39;22.65;;;11.02;;
66597;SDS011;57424;53.128;6.406;2023-05-10T11:56:05;14.45;;;9.77;;
66597;SDS011;57424;53.128;6.406;2023-05-10T11:58:32;17.42;;;11.07;;
66597;SDS011;57424;53.128;6.406;2023-05-10T12:00:59;16.52;;;10.82;;
66597;SDS011;57424;53.128;6.406;2023-05-10T12:03:25;16.45;;;10.15;;
66597;SDS011;57424;53.128;6.406;2023-05-10T12:05:52;15.40;;;10.65;;
66597;SDS011;57424;53.128;6.406;2023-05-10T12:08:22;16.65;;;9.75;;
66597;SDS011;57424;53.128;6.406;2023-05-10T12:10:48;16.80;;;9.65;;
66597;SDS011;57424;53.128;6.406;2023-05-10T12:13:14;14.85;;;9.73;;
66597;SDS011;57424;53.128;6.406;2023-05-10T12:15:40;15.00;;;9.70;;
66597;SDS011;57424;53.128;6.406;2023-05-10T12:18:10;14.68;;;9.43;;
66597;SDS011;57424;53.128;6.406;2023-05-10T12:20:37;12.85;;;9.02;;
66597;SDS011;57424;53.128;6.406;2023-05-10T12:23:03;15.68;;;8.93;;
66597;SDS011;57424;53.128;6.406;2023-05-10T12:25:31;13.82;;;9.30;;
66597;SDS011;57424;53.128;6.406;2023-05-10T12:28:02;13.23;;;8.60;;
66597;SDS011;57424;53.128;6.406;2023-05-10T12:30:31;12.70;;;8.80;;
66597;SDS011;57424;53.128;6.406;2023-05-10T12:33:01;16.50;;;8.85;;
66597;SDS011;57424;53.128;6.406;2023-05-10T12:35:43;14.48;;;8.45;;
66597;SDS011;57424;53.128;6.406;2023-05-10T12:38:24;12.00;;;8.70;;
66597;SDS011;57424;53.128;6.406;2023-05-10T12:41:03;12.38;;;8.20;;
66597;SDS011;57424;53.128;6.406;2023-05-10T12:43:33;13.50;;;7.57;;
66597;SDS011;57424;53.128;6.406;2023-05-10T12:46:09;11.57;;;7.18;;
66597;SDS011;57424;53.128;6.406;2023-05-10T12:48:42;12.18;;;7.80;;
66597;SDS011;57424;53.128;6.406;2023-05-10T12:51:09;10.93;;;7.30;;
66597;SDS011;57424;53.128;6.406;2023-05-10T12:53:38;15.02;;;7.70;;
66597;SDS011;57424;53.128;6.406;2023-05-10T12:56:04;10.60;;;7.35;;
66597;SDS011;57424;53.128;6.406;2023-05-10T12:58:30;10.88;;;7.68;;
66597;SDS011;57424;53.128;6.406;2023-05-10T13:00:57;13.00;;;7.38;;
66597;SDS011;57424;53.128;6.406;2023-05-10T13:03:23;11.70;;;7.28;;
66597;SDS011;57424;53.128;6.406;2023-05-10T13:05:49;11.07;;;7.22;;
66597;SDS011;57424;53.128;6.406;2023-05-10T13:08:15;14.55;;;7.63;;
66597;SDS011;57424;53.128;6.406;2023-05-10T13:10:40;12.48;;;7.25;;
66597;SDS011;57424;53.128;6.406;2023-05-10T13:13:06;12.85;;;7.28;;
66597;SDS011;57424;53.128;6.406;2023-05-10T13:15:33;10.38;;;6.40;;
66597;SDS011;57424;53.128;6.406;2023-05-10T13:17:59;11.02;;;7.22;;
66597;SDS011;57424;53.128;6.406;2023-05-10T13:20:25;12.02;;;6.93;;
66597;SDS011;57424;53.128;6.406;2023-05-10T13:22:51;10.45;;;6.30;;
66597;SDS011;57424;53.128;6.406;2023-05-10T13:25:18;12.10;;;6.32;;
66597;SDS011;57424;53.128;6.406;2023-05-10T13:27:44;9.55;;;6.25;;
66597;SDS011;57424;53.128;6.406;2023-05-10T13:30:10;10.85;;;7.35;;
66597;SDS011;57424;53.128;6.406;2023-05-10T13:32:36;10.05;;;7.00;;
66597;SDS011;57424;53.128;6.406;2023-05-10T13:35:02;9.07;;;5.90;;
66597;SDS011;57424;53.128;6.406;2023-05-10T13:37:29;11.50;;;6.68;;
66597;SDS011;57424;53.128;6.406;2023-05-10T13:39:55;12.57;;;7.07;;
66597;SDS011;57424;53.128;6.406;2023-05-10T13:42:22;10.05;;;6.97;;
66597;SDS011;57424;53.128;6.406;2023-05-10T13:44:48;10.93;;;7.00;;
66597;SDS011;57424;53.128;6.406;2023-05-10T13:47:14;11.30;;;7.07;;
66597;SDS011;57424;53.128;6.406;2023-05-10T13:49:40;9.35;;;6.65;;
66597;SDS011;57424;53.128;6.406;2023-05-10T13:52:06;10.23;;;6.57;;
66597;SDS011;57424;53.128;6.406;2023-05-10T13:54:38;10.32;;;6.28;;
66597;SDS011;57424;53.128;6.406;2023-05-10T13:57:04;11.07;;;6.18;;
66597;SDS011;57424;53.128;6.406;2023-05-10T13:59:30;11.90;;;6.60;;
66597;SDS011;57424;53.128;6.406;2023-05-10T14:01:58;9.05;;;6.55;;
66597;SDS011;57424;53.128;6.406;2023-05-10T14:04:24;10.13;;;6.93;;
66597;SDS011;57424;53.128;6.406;2023-05-10T14:06:50;8.88;;;6.75;;
66597;SDS011;57424;53.128;6.406;2023-05-10T14:09:17;9.60;;;6.80;;
66597;SDS011;57424;53.128;6.406;2023-05-10T14:11:43;10.05;;;6.75;;
66597;SDS011;57424;53.128;6.406;2023-05-10T14:14:09;10.20;;;6.97;;
66597;SDS011;57424;53.128;6.406;2023-05-10T14:16:35;9.77;;;6.80;;
66597;SDS011;57424;53.128;6.406;2023-05-10T14:19:01;11.43;;;7.43;;
66597;SDS011;57424;53.128;6.406;2023-05-10T14:21:26;12.32;;;6.85;;
66597;SDS011;57424;53.128;6.406;2023-05-10T14:23:54;8.35;;;6.45;;
66597;SDS011;57424;53.128;6.406;2023-05-10T14:26:20;7.97;;;6.30;;
66597;SDS011;57424;53.128;6.406;2023-05-10T14:28:46;10.32;;;6.78;;
66597;SDS011;57424;53.128;6.406;2023-05-10T14:31:12;9.90;;;6.53;;
66597;SDS011;57424;53.128;6.406;2023-05-10T14:33:37;9.38;;;6.88;;
66597;SDS011;57424;53.128;6.406;2023-05-10T14:36:03;9.32;;;6.32;;
66597;SDS011;57424;53.128;6.406;2023-05-10T14:38:29;9.73;;;6.82;;
66597;SDS011;57424;53.128;6.406;2023-05-10T14:40:54;10.40;;;6.43;;
66597;SDS011;57424;53.128;6.406;2023-05-10T14:43:20;8.70;;;6.10;;
66597;SDS011;57424;53.128;6.406;2023-05-10T14:45:46;8.90;;;6.13;;
66597;SDS011;57424;53.128;6.406;2023-05-10T14:48:12;7.50;;;5.93;;
66597;SDS011;57424;53.128;6.406;2023-05-10T14:50:40;10.40;;;6.20;;
66597;SDS011;57424;53.128;6.406;2023-05-10T14:53:06;10.43;;;6.25;;
66597;SDS011;57424;53.128;6.406;2023-05-10T14:55:31;8.98;;;6.00;;
66597;SDS011;57424;53.128;6.406;2023-05-10T14:57:57;8.82;;;6.28;;
66597;SDS011;57424;53.128;6.406;2023-05-10T15:00:23;12.10;;;6.38;;
66597;SDS011;57424;53.128;6.406;2023-05-10T15:02:49;9.20;;;5.68;;
66597;SDS011;57424;53.128;6.406;2023-05-10T15:05:14;8.48;;;6.45;;
66597;SDS011;57424;53.128;6.406;2023-05-10T15:07:40;8.75;;;5.90;;
66597;SDS011;57424;53.128;6.406;2023-05-10T15:10:08;9.68;;;6.57;;
66597;SDS011;57424;53.128;6.406;2023-05-10T15:12:34;9.68;;;5.85;;
66597;SDS011;57424;53.128;6.406;2023-05-10T15:15:00;8.20;;;5.90;;
66597;SDS011;57424;53.128;6.406;2023-05-10T15:17:26;9.27;;;5.60;;
66597;SDS011;57424;53.128;6.406;2023-05-10T15:19:51;8.50;;;6.05;;